createdAt,value
2022-11-19T00:01:54.124Z,100.00
2022-11-19T00:04:55.911Z,100.00
2022-11-19T00:07:57.370Z,100.00
2022-11-19T00:11:09.220Z,100.00
2022-11-19T00:14:12.848Z,100.00
2022-11-19T00:17:15.767Z,100.00
2022-11-19T00:20:20.412Z,99.83
2022-11-19T00:23:21.941Z,100.00
2022-11-19T00:26:23.901Z,100.00
2022-11-19T00:29:25.500Z,100.00
2022-11-19T00:32:28.601Z,100.00
2022-11-19T00:35:30.115Z,99.80
2022-11-19T00:38:32.021Z,99.79
2022-11-19T00:41:33.610Z,99.93
2022-11-19T00:44:37.377Z,99.89
2022-11-19T00:47:40.447Z,100.00
2022-11-19T00:50:42.443Z,100.00
2022-11-19T00:53:44.326Z,100.00
2022-11-19T00:56:46.966Z,99.82
2022-11-19T00:59:48.711Z,100.00
2022-11-19T01:02:51.649Z,99.79
2022-11-19T01:05:53.249Z,100.00
2022-11-19T01:08:54.801Z,100.00
2022-11-19T01:11:56.295Z,100.00
2022-11-19T01:14:58.482Z,100.00
2022-11-19T01:18:01.512Z,99.63
2022-11-19T01:21:03.237Z,100.00
2022-11-19T01:24:05.162Z,100.00
2022-11-19T01:27:06.629Z,99.87
2022-11-19T01:30:08.410Z,99.86
2022-11-19T01:33:11.476Z,99.62
2022-11-19T01:36:14.479Z,99.53
2022-11-19T01:39:16.002Z,99.40
2022-11-19T01:42:39.369Z,99.58
2022-11-19T01:45:41.779Z,99.31
2022-11-19T01:48:47.200Z,99.39
2022-11-19T01:51:51.220Z,99.62
2022-11-19T01:54:54.296Z,99.36
2022-11-19T01:57:58.208Z,99.62
2022-11-19T02:00:59.921Z,99.13
2022-11-19T02:04:03.994Z,99.11
2022-11-19T02:07:06.122Z,99.03
2022-11-19T02:10:08.286Z,99.02
2022-11-19T02:13:13.463Z,99.31
2022-11-19T02:16:21.063Z,98.87
2022-11-19T02:19:44.136Z,98.83
2022-11-19T02:23:04.675Z,99.39
2022-11-19T02:26:19.294Z,99.24
2022-11-19T02:29:31.435Z,99.21
2022-11-19T02:32:41.963Z,98.63
2022-11-19T02:35:47.516Z,99.08
2022-11-19T02:38:52.066Z,99.10
2022-11-19T02:41:56.125Z,99.21
2022-11-19T02:44:59.413Z,99.00
2022-11-19T02:48:05.433Z,98.47
2022-11-19T02:51:07.962Z,98.58
2022-11-19T02:54:09.534Z,98.51
2022-11-19T02:57:12.030Z,97.95
2022-11-19T03:00:33.153Z,98.10
2022-11-19T03:03:55.216Z,97.86
2022-11-19T03:06:58.318Z,97.98
2022-11-19T03:10:02.687Z,97.84
2022-11-19T03:13:29.481Z,97.67
2022-11-19T03:16:41.973Z,97.96
2022-11-19T03:19:46.818Z,97.67
2022-11-19T03:22:51.711Z,97.14
2022-11-19T03:25:55.700Z,97.25
2022-11-19T03:28:59.368Z,97.09
2022-11-19T03:32:03.653Z,97.28
2022-11-19T03:35:08.901Z,97.01
2022-11-19T03:38:11.934Z,96.75
2022-11-19T03:41:15.628Z,96.31
2022-11-19T03:44:20.032Z,96.37
2022-11-19T03:47:24.745Z,95.90
2022-11-19T03:50:29.906Z,95.87
2022-11-19T03:53:31.540Z,96.19
2022-11-19T03:56:35.208Z,95.44
2022-11-19T03:59:38.774Z,95.03
2022-11-19T04:02:40.553Z,95.07
2022-11-19T04:05:44.022Z,94.58
2022-11-19T04:08:45.793Z,94.17
2022-11-19T04:14:48.235Z,93.96
2022-11-19T04:17:49.776Z,93.92
2022-11-19T04:20:52.789Z,93.75
2022-11-19T04:23:54.454Z,93.54
2022-11-19T04:26:56.087Z,93.75
2022-11-19T04:29:57.759Z,93.64
2022-11-19T04:32:59.211Z,93.95
2022-11-19T04:36:02.231Z,93.67
2022-11-19T04:39:03.825Z,93.82
2022-11-19T04:42:05.483Z,93.70
2022-11-19T04:45:07.639Z,93.73
2022-11-19T04:48:09.247Z,93.43
2022-11-19T04:51:12.155Z,93.50
2022-11-19T04:54:13.744Z,93.24
2022-11-19T04:57:15.566Z,93.31
2022-11-19T05:00:17.799Z,93.51
2022-11-19T05:03:19.308Z,93.29
2022-11-19T05:06:22.239Z,93.37
2022-11-19T05:09:23.752Z,93.41
2022-11-19T05:12:25.689Z,93.75
2022-11-19T05:15:27.192Z,93.69
2022-11-19T05:18:28.812Z,93.96
2022-11-19T05:21:31.742Z,93.78
2022-11-19T05:24:33.443Z,93.73
2022-11-19T05:27:35.389Z,93.81
2022-11-19T05:30:37.029Z,93.91
2022-11-19T05:33:38.637Z,93.99
2022-11-19T05:36:41.692Z,94.14
2022-11-19T05:39:43.365Z,94.37
2022-11-19T05:42:44.921Z,94.09
2022-11-19T05:45:46.550Z,94.27
2022-11-19T05:48:48.184Z,94.49
2022-11-19T05:51:51.200Z,94.38
2022-11-19T05:54:52.755Z,94.24
2022-11-19T05:57:54.438Z,94.39
2022-11-19T06:00:56.213Z,94.27
2022-11-19T06:03:57.805Z,94.28
2022-11-19T06:07:00.833Z,94.76
2022-11-19T06:10:02.510Z,94.74
2022-11-19T06:13:04.179Z,94.61
2022-11-19T06:16:09.083Z,94.66
2022-11-19T06:19:11.072Z,94.66
2022-11-19T06:22:14.110Z,94.76
2022-11-19T06:25:15.701Z,94.61
2022-11-19T06:28:17.361Z,94.79
2022-11-19T06:31:19.361Z,94.53
2022-11-19T06:34:21.150Z,94.42
2022-11-19T06:37:24.250Z,94.20
2022-11-19T06:40:25.863Z,94.23
2022-11-19T06:43:27.458Z,94.05
2022-11-19T06:46:29.180Z,93.78
2022-11-19T06:49:30.680Z,94.08
2022-11-19T06:52:33.538Z,94.09
2022-11-19T06:55:35.186Z,93.68
2022-11-19T06:58:36.708Z,94.08
2022-11-19T07:01:38.371Z,93.67
2022-11-19T07:04:40.249Z,93.81
2022-11-19T07:07:43.259Z,93.62
2022-11-19T07:10:44.900Z,93.97
2022-11-19T07:14:01.761Z,93.90
2022-11-19T07:17:03.472Z,93.67
2022-11-19T07:20:05.691Z,93.32
2022-11-19T07:23:11.070Z,93.38
2022-11-19T07:26:12.755Z,93.70
2022-11-19T07:29:14.998Z,93.12
2022-11-19T07:32:16.645Z,93.33
2022-11-19T07:35:18.370Z,93.08
2022-11-19T07:38:21.192Z,93.48
2022-11-19T07:41:41.278Z,93.10
2022-11-19T07:44:42.882Z,93.20
2022-11-19T07:47:44.393Z,93.17
2022-11-19T07:50:55.152Z,93.30
2022-11-19T07:53:59.218Z,92.81
2022-11-19T07:57:00.927Z,92.88
2022-11-19T08:00:03.101Z,92.31
2022-11-19T08:03:05.564Z,92.42
2022-11-19T08:06:08.530Z,92.97
2022-11-19T08:09:11.491Z,92.50
2022-11-19T08:12:13.056Z,92.32
2022-11-19T08:15:14.685Z,92.07
2022-11-19T08:18:17.348Z,92.17
2022-11-19T08:21:18.855Z,91.77
2022-11-19T08:24:22.703Z,91.72
2022-11-19T08:27:27.216Z,91.82
2022-11-19T08:30:28.758Z,92.20
2022-11-19T08:33:30.263Z,91.29
2022-11-19T08:36:31.901Z,91.29
2022-11-19T08:39:34.911Z,91.23
2022-11-19T08:42:55.239Z,90.88
2022-11-19T08:45:56.903Z,90.53
2022-11-19T08:48:59.655Z,90.34
2022-11-19T08:52:01.465Z,90.04
2022-11-19T08:55:04.906Z,90.02
2022-11-19T08:58:07.070Z,90.05
2022-11-19T09:01:09.983Z,90.72
2022-11-19T09:04:11.925Z,90.61
2022-11-19T09:07:13.801Z,90.68
2022-11-19T09:10:17.732Z,90.66
2022-11-19T09:13:19.365Z,90.73
2022-11-19T09:16:20.892Z,90.34
2022-11-19T09:19:22.445Z,89.89
2022-11-19T09:22:23.992Z,89.79
2022-11-19T09:25:26.946Z,89.47
2022-11-19T09:28:29.100Z,90.11
2022-11-19T09:31:30.663Z,89.80
2022-11-19T09:34:32.244Z,89.65
2022-11-19T09:37:36.468Z,88.91
2022-11-19T09:40:43.615Z,88.66
2022-11-19T09:43:47.416Z,88.88
2022-11-19T09:46:53.812Z,88.74
2022-11-19T09:50:02.936Z,88.48
2022-11-19T09:53:07.437Z,88.30
2022-11-19T09:56:13.993Z,88.15
2022-11-19T09:59:20.285Z,87.21
2022-11-19T10:02:22.886Z,87.75
2022-11-19T10:05:29.283Z,87.34
2022-11-19T10:08:37.790Z,87.37
2022-11-19T10:11:48.896Z,87.49
2022-11-19T10:15:03.926Z,88.13
2022-11-19T10:18:12.139Z,87.12
2022-11-19T10:21:18.901Z,86.21
2022-11-19T10:24:23.718Z,87.03
2022-11-19T10:27:29.746Z,86.03
2022-11-19T10:30:31.515Z,86.04
2022-11-19T10:33:35.106Z,86.30
2022-11-19T10:36:41.199Z,85.21
2022-11-19T10:39:44.413Z,85.79
2022-11-19T10:42:49.447Z,85.58
2022-11-19T10:45:50.925Z,85.03
2022-11-19T10:48:55.182Z,85.21
2022-11-19T10:51:59.212Z,84.99
2022-11-19T10:55:05.199Z,85.02
2022-11-19T10:58:10.984Z,84.25
2022-11-19T11:01:14.691Z,83.41
2022-11-19T11:04:18.726Z,83.41
2022-11-19T11:07:21.272Z,84.50
2022-11-19T11:10:27.613Z,83.86
2022-11-19T11:13:55.110Z,83.35
2022-11-19T11:16:56.898Z,84.04
2022-11-19T11:20:00.060Z,83.56
2022-11-19T11:23:06.809Z,84.49
2022-11-19T11:26:09.659Z,83.14
2022-11-19T11:29:26.408Z,83.83
2022-11-19T11:32:28.355Z,82.90
2022-11-19T11:35:32.164Z,82.57
2022-11-19T11:38:40.708Z,82.06
2022-11-19T11:45:08.389Z,82.36
2022-11-19T11:48:18.994Z,81.67
2022-11-19T11:51:28.488Z,80.81
2022-11-19T11:54:30.466Z,80.38
2022-11-19T11:57:33.789Z,80.70
2022-11-19T12:00:38.033Z,80.00
2022-11-19T12:03:55.236Z,80.08
2022-11-19T12:07:07.434Z,80.59
2022-11-19T12:10:22.642Z,80.26
2022-11-19T12:13:42.146Z,79.77
2022-11-19T12:16:51.727Z,80.13
2022-11-19T12:20:02.713Z,79.25
2022-11-19T12:23:13.615Z,79.80
2022-11-19T12:26:20.653Z,78.96
2022-11-19T12:29:27.159Z,78.71
2022-11-19T12:32:42.205Z,77.53
2022-11-19T12:35:51.024Z,78.57
2022-11-19T12:38:58.761Z,78.63
2022-11-19T12:42:07.408Z,78.33
2022-11-19T12:45:14.472Z,77.50
2022-11-19T12:48:32.268Z,77.41
2022-11-19T12:51:42.756Z,77.62
2022-11-19T12:54:51.607Z,77.22
2022-11-19T12:57:58.780Z,77.37
2022-11-19T13:01:04.180Z,78.14
2022-11-19T13:04:11.903Z,77.22
2022-11-19T13:07:14.989Z,76.80
2022-11-19T13:10:18.642Z,77.52
2022-11-19T13:13:27.069Z,77.14
2022-11-19T13:16:30.730Z,77.12
2022-11-19T13:19:36.613Z,76.40
2022-11-19T13:22:41.096Z,77.18
2022-11-19T13:25:45.478Z,77.13
2022-11-19T13:28:48.649Z,76.61
2022-11-19T13:31:51.954Z,77.34
2022-11-19T13:35:11.034Z,77.31
2022-11-19T13:38:16.024Z,78.31
2022-11-19T13:41:20.673Z,78.28
2022-11-19T13:44:40.740Z,77.77
2022-11-19T13:47:44.621Z,77.95
2022-11-19T13:50:50.471Z,77.86
2022-11-19T13:53:52.553Z,77.82
2022-11-19T13:56:56.939Z,78.12
2022-11-19T14:00:00.804Z,78.89
2022-11-19T14:03:15.691Z,78.32
2022-11-19T14:06:35.140Z,77.94
2022-11-19T14:09:41.115Z,78.83
2022-11-19T14:12:56.929Z,78.66
2022-11-19T14:16:25.463Z,78.58
2022-11-19T14:19:46.503Z,78.91
2022-11-19T14:23:13.184Z,78.69
2022-11-19T14:26:52.190Z,79.00
2022-11-19T14:29:56.252Z,79.81
2022-11-19T14:32:57.915Z,80.24
2022-11-19T14:35:59.556Z,80.20
2022-11-19T14:39:02.874Z,79.73
2022-11-19T14:42:16.142Z,79.94
2022-11-19T14:45:18.521Z,80.22
2022-11-19T14:48:20.428Z,79.87
2022-11-19T14:51:27.534Z,80.94
2022-11-19T14:54:32.684Z,80.29
2022-11-19T14:57:38.475Z,80.33
2022-11-19T15:00:41.166Z,79.86
2022-11-19T15:03:47.835Z,79.80
2022-11-19T15:06:50.318Z,79.62
2022-11-19T15:09:53.194Z,79.77
2022-11-19T15:13:18.848Z,80.12
2022-11-19T15:16:24.154Z,79.26
2022-11-19T15:19:34.330Z,79.14
2022-11-19T15:22:42.187Z,78.91
2022-11-19T15:25:49.068Z,79.27
2022-11-19T15:29:00.007Z,78.67
2022-11-19T15:32:15.776Z,78.61
2022-11-19T15:35:31.133Z,79.09
2022-11-19T15:38:35.977Z,79.65
2022-11-19T15:41:40.531Z,79.69
2022-11-19T15:44:45.434Z,79.38
2022-11-19T15:47:52.728Z,79.10
2022-11-19T15:50:54.603Z,80.49
2022-11-19T15:54:01.923Z,80.93
2022-11-19T15:57:05.692Z,81.34
2022-11-19T16:00:16.202Z,80.89
2022-11-19T16:06:27.080Z,82.47
2022-11-19T16:09:29.495Z,82.48
2022-11-19T16:12:49.545Z,81.92
2022-11-19T16:16:10.192Z,81.12
2022-11-19T16:19:13.045Z,81.81
2022-11-19T16:22:16.706Z,81.70
2022-11-19T16:25:23.386Z,81.17
2022-11-19T16:28:25.963Z,81.00
2022-11-19T16:31:29.659Z,81.63
2022-11-19T16:34:32.657Z,82.08
2022-11-19T16:37:36.003Z,82.52
2022-11-19T16:41:07.005Z,82.70
2022-11-19T16:44:11.730Z,82.93
2022-11-19T16:47:20.877Z,82.12
2022-11-19T16:50:27.439Z,82.82
2022-11-19T16:57:00.453Z,83.86
2022-11-19T17:00:04.586Z,84.28
2022-11-19T17:03:16.781Z,84.27
2022-11-19T17:06:20.294Z,84.63
2022-11-19T17:09:41.857Z,83.96
2022-11-19T17:12:50.647Z,84.26
2022-11-19T17:15:52.302Z,83.61
2022-11-19T17:18:53.786Z,83.50
2022-11-19T17:21:56.739Z,83.16
2022-11-19T17:25:01.064Z,83.74
2022-11-19T17:28:04.242Z,84.01
2022-11-19T17:31:07.244Z,83.75
2022-11-19T17:34:11.863Z,84.15
2022-11-19T17:37:13.339Z,84.91
2022-11-19T17:40:17.473Z,84.24
2022-11-19T17:43:41.121Z,83.88
2022-11-19T17:46:42.579Z,83.51
2022-11-19T17:49:45.685Z,83.25
2022-11-19T17:52:47.121Z,83.29
2022-11-19T17:55:49.851Z,83.87
2022-11-19T17:58:53.003Z,84.72
2022-11-19T18:01:57.774Z,84.78
2022-11-19T18:04:59.478Z,84.67
2022-11-19T18:08:01.043Z,85.20
2022-11-19T18:11:04.027Z,84.90
2022-11-19T18:14:10.317Z,84.61
2022-11-19T18:17:12.361Z,84.58
2022-11-19T18:20:14.048Z,84.15
2022-11-19T18:23:15.827Z,84.71
2022-11-19T18:26:18.820Z,84.97
2022-11-19T18:29:22.899Z,84.58
2022-11-19T18:32:24.720Z,84.40
2022-11-19T18:35:27.947Z,84.82
2022-11-19T18:38:29.472Z,84.60
2022-11-19T18:41:32.023Z,84.74
2022-11-19T18:44:34.943Z,85.33
2022-11-19T18:47:36.449Z,84.95
2022-11-19T18:50:37.933Z,85.13
2022-11-19T18:53:39.753Z,84.87
2022-11-19T18:56:41.343Z,85.03
2022-11-19T18:59:44.275Z,85.63
2022-11-19T19:02:45.777Z,86.10
2022-11-19T19:05:47.372Z,86.25
2022-11-19T19:08:49.662Z,86.32
2022-11-19T19:12:13.551Z,85.86
2022-11-19T19:15:16.924Z,86.11
2022-11-19T19:18:19.229Z,86.13
2022-11-19T19:21:23.975Z,86.42
2022-11-19T19:24:25.546Z,86.85
2022-11-19T19:27:27.018Z,86.63
2022-11-19T19:30:30.085Z,86.16
2022-11-19T19:33:32.027Z,85.83
2022-11-19T19:36:33.516Z,85.75
2022-11-19T19:39:35.151Z,85.83
2022-11-19T19:42:41.045Z,86.08
2022-11-19T19:45:44.318Z,86.33
2022-11-19T19:48:46.496Z,85.99
2022-11-19T19:51:48.025Z,85.72
2022-11-19T19:54:49.604Z,85.96
2022-11-19T19:57:51.657Z,86.56
2022-11-19T20:00:54.612Z,86.25
2022-11-19T20:04:00.608Z,86.30
2022-11-19T20:07:02.242Z,86.19
2022-11-19T20:10:04.354Z,86.51
2022-11-19T20:13:24.659Z,86.26
2022-11-19T20:16:28.790Z,86.50
2022-11-19T20:19:30.767Z,86.64
2022-11-19T20:22:32.946Z,86.79
2022-11-19T20:25:34.416Z,86.89
2022-11-19T20:28:36.015Z,86.87
2022-11-19T20:31:39.023Z,87.22
2022-11-19T20:34:40.691Z,87.39
2022-11-19T20:37:42.188Z,86.81
2022-11-19T20:40:44.166Z,87.32
2022-11-19T20:44:04.746Z,87.41
2022-11-19T20:47:07.644Z,87.57
2022-11-19T20:50:09.347Z,87.70
2022-11-19T20:53:10.973Z,87.65
2022-11-19T20:56:13.267Z,87.68
2022-11-19T20:59:15.130Z,87.69
2022-11-19T21:02:18.334Z,87.39
2022-11-19T21:05:20.140Z,87.15
2022-11-19T21:08:21.982Z,87.52
2022-11-19T21:11:24.601Z,87.67
2022-11-19T21:14:26.114Z,87.30
2022-11-19T21:17:29.211Z,86.65
2022-11-19T21:20:31.354Z,86.90
2022-11-19T21:23:33.388Z,86.77
2022-11-19T21:26:34.992Z,86.93
2022-11-19T21:29:38.503Z,87.62
2022-11-19T21:32:41.332Z,87.26
2022-11-19T21:35:42.773Z,87.35
2022-11-19T21:38:44.225Z,86.73
2022-11-19T21:41:45.974Z,87.07
2022-11-19T21:44:47.455Z,86.98
2022-11-19T21:47:50.332Z,87.59
2022-11-19T21:50:52.506Z,87.60
2022-11-19T21:53:54.457Z,87.49
2022-11-19T21:56:56.551Z,87.94
2022-11-19T21:59:57.991Z,87.60
2022-11-19T22:03:01.286Z,87.82
2022-11-19T22:06:03.565Z,87.95
2022-11-19T22:09:05.407Z,87.85
2022-11-19T22:12:06.970Z,87.83
2022-11-19T22:15:09.648Z,87.53
2022-11-19T22:18:12.871Z,87.48
2022-11-19T22:21:14.523Z,87.97
2022-11-19T22:24:16.261Z,88.12
2022-11-19T22:27:17.733Z,88.11
2022-11-19T22:30:19.407Z,88.24
2022-11-19T22:33:22.394Z,88.16
2022-11-19T22:36:23.991Z,88.23
2022-11-19T22:39:25.817Z,88.18
2022-11-19T22:42:27.428Z,88.40
2022-11-19T22:45:29.021Z,88.20
2022-11-19T22:48:32.383Z,88.33
2022-11-19T22:51:33.879Z,87.92
2022-11-19T22:54:41.239Z,87.97
2022-11-19T22:57:43.235Z,88.17
2022-11-19T23:00:46.385Z,87.85
2022-11-19T23:03:49.450Z,87.85
2022-11-19T23:06:51.636Z,88.55
2022-11-19T23:09:53.165Z,88.90
2022-11-19T23:13:13.308Z,88.79
2022-11-19T23:16:15.622Z,88.33
2022-11-19T23:19:19.673Z,88.26
2022-11-19T23:22:21.571Z,88.23
2022-11-19T23:25:23.257Z,88.84
2022-11-19T23:28:25.057Z,88.70
2022-11-19T23:31:27.127Z,89.28
2022-11-19T23:34:29.989Z,89.21
2022-11-19T23:37:31.555Z,88.77
2022-11-19T23:40:33.018Z,88.77
2022-11-19T23:43:35.187Z,88.82
2022-11-19T23:46:37.274Z,88.74
2022-11-19T23:49:40.289Z,88.90
2022-11-19T23:52:41.854Z,88.73
2022-11-19T23:55:45.395Z,88.54
2022-11-19T23:58:46.950Z,88.71
